Dades meteomassalio
Diari Summary for Juliol 13, 2017 Units:  Metric    English   Both
« Previous Day
Next Day »
Diari Semanal Mensual Anual Personalitzat
  Maxima: Minima: Mijana:
Temperatura: 37.5 °C 18.6 °C 28.9 °C
Rosada: 17.7 °C 13.9 °C 15.2 °C
Humitat: 76 % 26 % 46 %
Velocitat del vent: 29.6 km/h 0.0 km/h 4.7 km/h
Racha vent: 29.6 km/h - -
Vent:- - SSW
Pressio: 1018.5 hPa 1012.8 hPa -
Pluja: 0.0 mm    
Historical Graphs
 
 
Tabular Data for Juliol 13, 2017
Time Temperature Dew Point Pressure Wind Wind Speed Wind Gust Humidity Rainfall Rate (Hourly) solar Conditions
00:01 29.8 °C 14.8 °C 1016.5 hPa Calm     40 % 0.0 mm 0.0 W/m2 CLR
00:06 29.7 °C 14.7 °C 1016.5 hPa NW 14.8 km/h 14.8 km/h 40 % 0.0 mm 0.0 W/m2 CLR
00:11 29.7 °C 14.7 °C 1016.5 hPa Calm     40 % 0.0 mm 0.0 W/m2 CLR
00:12 29.7 °C 14.7 °C 1016.5 hPa North 6.4 km/h 6.4 km/h 40 % 0.0 mm 0.0 W/m2 CLR
00:17 29.7 °C 14.6 °C 1016.5 hPa Calm     40 % 0.0 mm 0.0 W/m2 CLR
00:22 29.6 °C 14.2 °C 1016.8 hPa Calm     39 % 0.0 mm 0.0 W/m2 CLR
00:27 29.6 °C 14.6 °C 1016.8 hPa Calm     40 % 0.0 mm 0.0 W/m2 CLR
00:32 29.4 °C 14.4 °C 1016.8 hPa Calm     40 % 0.0 mm 0.0 W/m2 CLR
00:37 29.3 °C 14.3 °C 1016.8 hPa Calm     40 % 0.0 mm 0.0 W/m2 CLR
00:42 29.2 °C 14.6 °C 1017.2 hPa Calm     41 % 0.0 mm 0.0 W/m2 CLR
00:47 28.9 °C 14.7 °C 1016.8 hPa SW 5.6 km/h 5.6 km/h 42 % 0.0 mm 0.0 W/m2 CLR
00:52 28.7 °C 14.8 °C 1017.2 hPa Calm     43 % 0.0 mm 0.0 W/m2 CLR
00:57 28.4 °C 14.9 °C 1017.2 hPa Calm     44 % 0.0 mm 0.0 W/m2 CLR
01:02 28.1 °C 15.1 °C 1017.2 hPa WSW 5.6 km/h   45 % 0.0 mm 0.0 W/m2 CLR
01:07 27.9 °C 14.9 °C 1017.2 hPa Calm     45 % 0.0 mm 0.0 W/m2 CLR
01:12 27.9 °C 15.2 °C 1017.2 hPa WSW 11.1 km/h 11.1 km/h 46 % 0.0 mm 0.0 W/m2 CLR
01:17 27.7 °C 15.1 °C 1017.2 hPa WSW 7.4 km/h 7.4 km/h 46 % 0.0 mm 0.0 W/m2 CLR
01:22 27.7 °C 15.0 °C 1017.2 hPa West 5.6 km/h   46 % 0.0 mm 0.0 W/m2 CLR
01:27 27.6 °C 14.9 °C 1017.2 hPa WSW 5.6 km/h 5.6 km/h 46 % 0.0 mm 0.0 W/m2 CLR
01:33 27.5 °C 15.2 °C 1017.2 hPa Calm     47 % 0.0 mm 0.0 W/m2 CLR
01:38 27.3 °C 15.1 °C 1017.2 hPa Calm     47 % 0.0 mm 0.0 W/m2 CLR
01:43 27.2 °C 15.2 °C 1017.2 hPa Calm     48 % 0.0 mm 0.0 W/m2 CLR
01:48 26.9 °C 15.0 °C 1017.2 hPa Calm     48 % 0.0 mm 0.0 W/m2 CLR
01:53 26.8 °C 15.5 °C 1017.2 hPa Calm     50 % 0.0 mm 0.0 W/m2 CLR
01:58 26.6 °C 15.6 °C 1017.2 hPa Calm     51 % 0.0 mm 0.0 W/m2 CLR
02:03 26.3 °C 15.4 °C 1017.2 hPa Calm     51 % 0.0 mm 0.0 W/m2 CLR
02:08 26.2 °C 15.2 °C 1017.2 hPa Calm     51 % 0.0 mm 0.0 W/m2 CLR
02:09 26.1 °C 15.2 °C 1017.2 hPa Calm     51 % 0.0 mm 0.0 W/m2 CLR
02:15 26.0 °C 15.1 °C 1017.2 hPa Calm     51 % 0.0 mm 0.0 W/m2 CLR
02:20 26.1 °C 13.9 °C 1017.2 hPa West 7.4 km/h 7.4 km/h 47 % 0.0 mm 0.0 W/m2 CLR
02:25 26.5 °C 14.3 °C 1017.2 hPa Calm     47 % 0.0 mm 0.0 W/m2 CLR
02:30 26.6 °C 14.9 °C 1017.2 hPa Calm     49 % 0.0 mm 0.0 W/m2 CLR
02:35 26.4 °C 15.1 °C 1017.2 hPa Calm     50 % 0.0 mm 0.0 W/m2 CLR
02:40 26.1 °C 14.8 °C 1017.2 hPa Calm     50 % 0.0 mm 0.0 W/m2 CLR
02:45 25.8 °C 14.9 °C 1017.2 hPa Calm     51 % 0.0 mm 0.0 W/m2 CLR
02:50 25.6 °C 14.4 °C 1017.2 hPa Calm     50 % 0.0 mm 0.0 W/m2 CLR
02:51 25.6 °C 14.9 °C 1017.2 hPa Calm     52 % 0.0 mm 0.0 W/m2 CLR
02:56 25.3 °C 15.1 °C 1017.2 hPa Calm     53 % 0.0 mm 0.0 W/m2 CLR
03:01 25.2 °C 14.3 °C 1017.2 hPa Calm     51 % 0.0 mm 0.0 W/m2 CLR
03:06 25.0 °C 15.6 °C 1017.2 hPa Calm     56 % 0.0 mm 0.0 W/m2 CLR
03:11 24.6 °C 15.5 °C 1017.2 hPa Calm     57 % 0.0 mm 0.0 W/m2 CLR
03:16 24.2 °C 15.4 °C 1017.2 hPa Calm     58 % 0.0 mm 0.0 W/m2 CLR
03:21 23.8 °C 15.3 °C 1017.2 hPa Calm     59 % 0.0 mm 0.0 W/m2 CLR
03:26 23.6 °C 15.4 °C 1017.5 hPa Calm     60 % 0.0 mm 0.0 W/m2 CLR
03:31 23.4 °C 14.9 °C 1017.5 hPa Calm     59 % 0.0 mm 0.0 W/m2 CLR
03:36 23.3 °C 14.8 °C 1017.5 hPa Calm     59 % 0.0 mm 0.0 W/m2 CLR
03:41 23.2 °C 14.9 °C 1017.5 hPa Calm     60 % 0.0 mm 0.0 W/m2 CLR
03:46 23.1 °C 15.2 °C 1017.5 hPa Calm     61 % 0.0 mm 0.0 W/m2 CLR
03:51 22.9 °C 15.0 °C 1017.5 hPa Calm     61 % 0.0 mm 0.0 W/m2 CLR
03:56 22.8 °C 15.1 °C 1017.5 hPa Calm     62 % 0.0 mm 0.0 W/m2 CLR
04:01 22.6 °C 14.9 °C 1017.2 hPa Calm     62 % 0.0 mm 0.0 W/m2 CLR
04:06 22.3 °C 14.9 °C 1017.2 hPa Calm     63 % 0.0 mm 0.0 W/m2 CLR
04:11 22.1 °C 15.2 °C 1017.5 hPa Calm     65 % 0.0 mm 0.0 W/m2 CLR
04:16 21.8 °C 14.9 °C 1017.5 hPa Calm     65 % 0.0 mm 0.0 W/m2 CLR
04:21 21.7 °C 14.8 °C 1017.2 hPa Calm     65 % 0.0 mm 0.0 W/m2 CLR
04:26 21.5 °C 14.7 °C 1017.5 hPa Calm     65 % 0.0 mm 0.0 W/m2 CLR
04:31 21.4 °C 14.8 °C 1017.2 hPa Calm     66 % 0.0 mm 0.0 W/m2 CLR
04:36 21.3 °C 14.9 °C 1017.2 hPa Calm     67 % 0.0 mm 0.0 W/m2 CLR
04:41 21.2 °C 15.1 °C 1017.5 hPa Calm     68 % 0.0 mm 0.0 W/m2 CLR
04:46 21.0 °C 15.1 °C 1017.5 hPa Calm     69 % 0.0 mm 0.0 W/m2 CLR
04:51 20.8 °C 14.7 °C 1017.5 hPa Calm     68 % 0.0 mm 0.0 W/m2 CLR
04:56 20.7 °C 14.6 °C 1017.5 hPa Calm     68 % 0.0 mm 0.0 W/m2 CLR
05:01 20.6 °C 14.4 °C 1017.5 hPa Calm     68 % 0.0 mm 0.0 W/m2 CLR
05:06 20.4 °C 14.6 °C 1017.5 hPa Calm     69 % 0.0 mm 0.0 W/m2 CLR
05:11 20.4 °C 14.5 °C 1017.5 hPa Calm     69 % 0.0 mm 0.0 W/m2 CLR
05:16 20.3 °C 14.4 °C 1017.5 hPa Calm     69 % 0.0 mm 0.0 W/m2 CLR
05:21 20.3 °C 14.2 °C 1017.5 hPa Calm     68 % 0.0 mm 0.0 W/m2 CLR
05:26 20.2 °C 14.3 °C 1017.5 hPa Calm     69 % 0.0 mm 0.0 W/m2 CLR
05:31 20.1 °C 14.2 °C 1017.5 hPa Calm     69 % 0.0 mm 0.0 W/m2 CLR
05:36 19.9 °C 14.3 °C 1017.5 hPa Calm     70 % 0.0 mm 0.0 W/m2 CLR
05:41 19.9 °C 14.1 °C 1017.5 hPa Calm     69 % 0.0 mm 0.0 W/m2 CLR
05:46 19.9 °C 14.3 °C 1017.5 hPa Calm     70 % 0.0 mm 0.0 W/m2 CLR
05:51 19.8 °C 14.2 °C 1017.5 hPa Calm     70 % 0.0 mm 0.0 W/m2 CLR
05:56 19.7 °C 14.1 °C 1017.5 hPa Calm     70 % 0.0 mm 0.0 W/m2 CLR
06:01 19.7 °C 14.3 °C 1017.5 hPa Calm     71 % 0.0 mm 0.0 W/m2 CLR
06:06 19.6 °C 14.2 °C 1017.5 hPa Calm     71 % 0.0 mm 0.0 W/m2 CLR
06:07 19.6 °C 14.2 °C 1017.5 hPa Calm     71 % 0.0 mm 0.0 W/m2 CLR
06:12 19.4 °C 14.3 °C 1017.5 hPa Calm     72 % 0.0 mm 0.0 W/m2 CLR
06:17 19.3 °C 14.1 °C 1017.5 hPa Calm     72 % 0.0 mm 0.0 W/m2 CLR
06:22 19.1 °C 13.9 °C 1017.5 hPa Calm     72 % 0.0 mm 0.0 W/m2 CLR
06:27 19.0 °C 14.1 °C 1017.5 hPa Calm     73 % 0.0 mm 0.0 W/m2 CLR
06:32 18.9 °C 13.9 °C 1017.8 hPa Calm     73 % 0.0 mm 0.0 W/m2 OVC
06:37 18.8 °C 14.1 °C 1017.8 hPa Calm     74 % 0.0 mm 5.0 W/m2 OVC
06:42 18.8 °C 14.3 °C 1017.8 hPa Calm     75 % 0.0 mm 7.0 W/m2 BKN
06:47 18.8 °C 14.3 °C 1017.8 hPa Calm     75 % 0.0 mm 9.0 W/m2 BKN
06:52 18.8 °C 14.3 °C 1017.8 hPa Calm     75 % 0.0 mm 12.0 W/m2 BKN
06:57 18.7 °C 14.2 °C 1017.8 hPa Calm     75 % 0.0 mm 16.0 W/m2 BKN
07:02 18.6 °C 14.1 °C 1017.8 hPa Calm     75 % 0.0 mm 18.0 W/m2 BKN
07:07 18.6 °C 14.3 °C 1017.8 hPa Calm     76 % 0.0 mm 21.0 W/m2 BKN
07:12 18.6 °C 14.2 °C 1017.8 hPa Calm     76 % 0.0 mm 25.0 W/m2 BKN
07:17 18.6 °C 14.2 °C 1018.2 hPa Calm     76 % 0.0 mm 32.0 W/m2 BKN
07:22 18.7 °C 14.2 °C 1018.2 hPa Calm     75 % 0.0 mm 40.0 W/m2 BKN
07:27 18.9 °C 14.2 °C 1018.2 hPa Calm     74 % 0.0 mm 49.0 W/m2 SCT
07:32 19.0 °C 14.3 °C 1018.2 hPa Calm     74 % 0.0 mm 60.0 W/m2 SCT
07:37 19.1 °C 14.3 °C 1018.2 hPa Calm     74 % 0.0 mm 72.0 W/m2 FEW
07:42 19.2 °C 14.3 °C 1018.2 hPa Calm     73 % 0.0 mm 84.0 W/m2 FEW
07:47 19.4 °C 14.2 °C 1018.2 hPa Calm     72 % 0.0 mm 98.0 W/m2 FEW
07:52 19.6 °C 14.4 °C 1018.2 hPa Calm     72 % 0.0 mm 111.0 W/m2 CLR
07:57 19.8 °C 14.6 °C 1018.2 hPa Calm     72 % 0.0 mm 128.0 W/m2 CLR
08:02 20.1 °C 14.8 °C 1018.2 hPa Calm     72 % 0.0 mm 144.0 W/m2 CLR
08:08 20.4 °C 14.7 °C 1018.2 hPa Calm     70 % 0.0 mm 163.0 W/m2 CLR
08:13 20.7 °C 14.8 °C 1018.2 hPa Calm     69 % 0.0 mm 179.0 W/m2 CLR
08:18 21.1 °C 14.9 °C 1018.5 hPa Calm     68 % 0.0 mm 195.0 W/m2 CLR
08:23 21.4 °C 14.8 °C 1018.5 hPa Calm     66 % 0.0 mm 211.0 W/m2 CLR
08:28 21.8 °C 15.2 °C 1018.5 hPa Calm     66 % 0.0 mm 227.0 W/m2 CLR
08:33 22.1 °C 15.4 °C 1018.2 hPa Calm     66 % 0.0 mm 244.0 W/m2 CLR
08:38 22.3 °C 15.8 °C 1018.2 hPa Calm     67 % 0.0 mm 258.0 W/m2 CLR
08:43 22.6 °C 16.2 °C 1018.2 hPa Calm     67 % 0.0 mm 274.0 W/m2 CLR
08:48 22.9 °C 15.7 °C 1018.2 hPa Calm     64 % 0.0 mm 288.0 W/m2 CLR
08:53 23.2 °C 15.6 °C 1018.2 hPa Calm     62 % 0.0 mm 306.0 W/m2 CLR
08:58 23.6 °C 15.7 °C 1018.2 hPa Calm     61 % 0.0 mm 320.0 W/m2 CLR
09:03 23.9 °C 15.4 °C 1018.2 hPa WSW 7.4 km/h 7.4 km/h 59 % 0.0 mm 334.0 W/m2 CLR
09:08 24.1 °C 15.6 °C 1018.2 hPa SW 9.3 km/h 9.3 km/h 59 % 0.0 mm 352.0 W/m2 CLR
09:13 24.4 °C 15.7 °C 1018.2 hPa SSW 5.6 km/h 5.6 km/h 58 % 0.0 mm 369.0 W/m2 CLR
09:18 24.6 °C 15.5 °C 1018.2 hPa SW 7.4 km/h 7.4 km/h 57 % 0.0 mm 383.0 W/m2 CLR
09:23 24.9 °C 15.5 °C 1017.8 hPa SW 11.3 km/h 11.3 km/h 56 % 0.0 mm 397.0 W/m2 CLR
09:28 25.0 °C 15.9 °C 1018.2 hPa Calm     57 % 0.0 mm 413.0 W/m2 CLR
09:33 25.2 °C 15.8 °C 1018.2 hPa NW 11.1 km/h 11.1 km/h 56 % 0.0 mm 431.0 W/m2 CLR
09:38 25.3 °C 15.6 °C 1018.2 hPa North 9.3 km/h 9.3 km/h 55 % 0.0 mm 446.0 W/m2 CLR
09:43 25.3 °C 15.7 °C 1018.2 hPa NNW 7.4 km/h 7.4 km/h 55 % 0.0 mm 462.0 W/m2 CLR
09:48 25.4 °C 15.7 °C 1018.2 hPa NW 11.1 km/h 11.1 km/h 55 % 0.0 mm 476.0 W/m2 CLR
09:53 25.5 °C 15.5 °C 1018.2 hPa NNW 7.4 km/h 7.4 km/h 54 % 0.0 mm 492.0 W/m2 CLR
09:58 25.5 °C 15.8 °C 1018.2 hPa Calm     55 % 0.0 mm 508.0 W/m2 CLR
10:03 25.6 °C 15.9 °C 1017.8 hPa WNW 1.9 km/h   55 % 0.0 mm 522.0 W/m2 CLR
10:08 25.8 °C 15.8 °C 1018.2 hPa NW 7.4 km/h 7.4 km/h 54 % 0.0 mm 538.0 W/m2 CLR
10:13 25.9 °C 15.6 °C 1017.8 hPa NNE 3.2 km/h 3.2 km/h 53 % 0.0 mm 552.0 W/m2 CLR
10:18 26.0 °C 15.7 °C 1017.8 hPa Calm     53 % 0.0 mm 568.0 W/m2 CLR
10:23 26.2 °C 15.8 °C 1017.8 hPa Calm     53 % 0.0 mm 580.0 W/m2 CLR
10:28 26.4 °C 15.8 °C 1017.8 hPa North 7.4 km/h 7.4 km/h 52 % 0.0 mm 594.0 W/m2 CLR
10:33 26.5 °C 15.6 °C 1017.8 hPa Calm     51 % 0.0 mm 606.0 W/m2 CLR
10:38 26.6 °C 15.9 °C 1017.8 hPa NW 3.7 km/h   52 % 0.0 mm 622.0 W/m2 CLR
10:43 26.8 °C 16.2 °C 1017.8 hPa Calm     52 % 0.0 mm 633.0 W/m2 CLR
10:48 27.2 °C 16.2 °C 1017.8 hPa Calm     51 % 0.0 mm 649.0 W/m2 CLR
10:53 27.4 °C 16.1 °C 1017.8 hPa Calm     50 % 0.0 mm 661.0 W/m2 CLR
10:58 27.8 °C 16.1 °C 1017.5 hPa ENE 5.6 km/h 5.6 km/h 49 % 0.0 mm 671.0 W/m2 CLR
11:03 27.9 °C 15.9 °C 1017.5 hPa ESE 3.7 km/h   48 % 0.0 mm 687.0 W/m2 CLR
11:08 28.0 °C 16.3 °C 1017.5 hPa East 5.6 km/h 5.6 km/h 49 % 0.0 mm 701.0 W/m2 CLR
11:13 28.1 °C 16.0 °C 1017.5 hPa ENE 3.7 km/h 3.7 km/h 48 % 0.0 mm 712.0 W/m2 CLR
11:18 28.1 °C 16.1 °C 1017.5 hPa ENE 8.0 km/h 8.0 km/h 48 % 0.0 mm 724.0 W/m2 CLR
11:23 28.1 °C 16.0 °C 1017.5 hPa ENE 9.3 km/h 9.3 km/h 48 % 0.0 mm 737.0 W/m2 CLR
11:28 28.3 °C 16.2 °C 1017.5 hPa ENE 9.3 km/h 9.3 km/h 48 % 0.0 mm 749.0 W/m2 CLR
11:33 28.4 °C 16.1 °C 1017.5 hPa Calm     47 % 0.0 mm 759.0 W/m2 CLR
11:38 28.6 °C 15.8 °C 1017.2 hPa Calm     46 % 0.0 mm 770.0 W/m2 CLR
11:43 28.6 °C 15.8 °C 1017.2 hPa SSE 7.4 km/h 7.4 km/h 46 % 0.0 mm 782.0 W/m2 CLR
11:48 28.6 °C 15.8 °C 1017.2 hPa ENE 1.9 km/h   46 % 0.0 mm 793.0 W/m2 CLR
11:49 28.6 °C 15.8 °C 1017.2 hPa Calm     46 % 0.0 mm 795.0 W/m2 CLR
11:54 29.1 °C 15.6 °C 1017.2 hPa ENE 5.6 km/h   44 % 0.0 mm 803.0 W/m2 CLR
11:59 29.3 °C 16.1 °C 1017.2 hPa Calm     45 % 0.0 mm 814.0 W/m2 CLR
12:04 29.7 °C 15.8 °C 1016.8 hPa West 5.6 km/h 5.6 km/h 43 % 0.0 mm 821.0 W/m2 CLR
12:09 29.7 °C 16.1 °C 1016.8 hPa North 7.4 km/h 7.4 km/h 44 % 0.0 mm 830.0 W/m2 CLR
12:14 29.8 °C 16.2 °C 1016.8 hPa NW 7.4 km/h 7.4 km/h 44 % 0.0 mm 835.0 W/m2 CLR
12:19 30.0 °C 15.7 °C 1016.8 hPa Calm     42 % 0.0 mm 847.0 W/m2 CLR
12:24 30.3 °C 16.3 °C 1016.8 hPa ENE 1.9 km/h 1.9 km/h 43 % 0.0 mm 853.0 W/m2 CLR
12:29 30.6 °C 16.2 °C 1016.8 hPa ENE 9.7 km/h 9.7 km/h 42 % 0.0 mm 861.0 W/m2 CLR
12:35 30.3 °C 15.9 °C 1016.8 hPa Calm   0.2 km/h 42 % 0.0 mm 865.0 W/m2 CLR
12:40 30.3 °C 16.0 °C 1016.8 hPa ENE 1.9 km/h 1.9 km/h 42 % 0.0 mm 872.0 W/m2 CLR
12:45 30.6 °C 16.6 °C 1016.8 hPa ENE 11.1 km/h 11.1 km/h 43 % 0.0 mm 874.0 W/m2 CLR
12:50 30.7 °C 16.3 °C 1016.5 hPa ENE 9.3 km/h 9.3 km/h 42 % 0.0 mm 881.0 W/m2 CLR
12:55 30.8 °C 16.4 °C 1016.8 hPa ENE 7.4 km/h   42 % 0.0 mm 884.0 W/m2 CLR
13:00 30.9 °C 16.2 °C 1016.8 hPa ENE 3.7 km/h   41 % 0.0 mm 889.0 W/m2 CLR
13:05 31.0 °C 16.2 °C 1016.8 hPa Calm     41 % 0.0 mm 893.0 W/m2 CLR
13:10 31.2 °C 16.3 °C 1016.5 hPa Calm     41 % 0.0 mm 900.0 W/m2 CLR
13:15 31.6 °C 16.4 °C 1016.5 hPa Calm     40 % 0.0 mm 900.0 W/m2 CLR
13:20 31.8 °C 16.9 °C 1016.5 hPa NNE 13.0 km/h 13.0 km/h 41 % 0.0 mm 909.0 W/m2 CLR
13:25 32.0 °C 16.3 °C 1016.5 hPa ENE 5.6 km/h   39 % 0.0 mm 909.0 W/m2 CLR
13:30 32.2 °C 16.4 °C 1016.1 hPa NE 11.1 km/h 11.1 km/h 39 % 0.0 mm 912.0 W/m2 CLR
13:35 32.1 °C 16.4 °C 1016.1 hPa ENE 5.6 km/h 5.6 km/h 39 % 0.0 mm 912.0 W/m2 CLR
13:40 31.9 °C 16.3 °C 1016.1 hPa ENE 8.0 km/h 8.0 km/h 39 % 0.0 mm 912.0 W/m2 CLR
13:45 32.2 °C 16.1 °C 1016.1 hPa NNE 5.6 km/h 5.6 km/h 38 % 0.0 mm 919.0 W/m2 CLR
13:50 32.5 °C 16.3 °C 1015.8 hPa ENE 3.2 km/h 3.2 km/h 38 % 0.0 mm 919.0 W/m2 CLR
13:55 32.6 °C 16.0 °C 1015.8 hPa NNE 7.4 km/h 7.4 km/h 37 % 0.0 mm 921.0 W/m2 CLR
14:00 32.6 °C 16.4 °C 1016.1 hPa NE 13.0 km/h 13.0 km/h 38 % 0.0 mm 919.0 W/m2 CLR
14:05 32.7 °C 16.6 °C 1015.8 hPa NNE 9.3 km/h 9.3 km/h 38 % 0.0 mm 919.0 W/m2 CLR
14:10 32.8 °C 16.6 °C 1015.8 hPa North 6.4 km/h 6.4 km/h 38 % 0.0 mm 914.0 W/m2 CLR
14:15 32.9 °C 15.9 °C 1015.5 hPa ENE 5.6 km/h 5.6 km/h 36 % 0.0 mm 918.0 W/m2 CLR
14:20 33.2 °C 16.5 °C 1015.5 hPa North 9.7 km/h 9.7 km/h 37 % 0.0 mm 918.0 W/m2 CLR
14:25 33.3 °C 16.6 °C 1015.5 hPa NE 13.0 km/h 13.0 km/h 37 % 0.0 mm 916.0 W/m2 CLR
14:30 33.4 °C 16.3 °C 1015.5 hPa ENE 11.1 km/h 11.1 km/h 36 % 0.0 mm 918.0 W/m2 CLR
14:35 33.4 °C 16.3 °C 1015.5 hPa North 9.7 km/h 9.7 km/h 36 % 0.0 mm 911.0 W/m2 CLR
14:40 33.7 °C 16.1 °C 1015.5 hPa North 9.3 km/h 9.3 km/h 35 % 0.0 mm 909.0 W/m2 CLR
14:45 33.8 °C 16.7 °C 1015.1 hPa NNE 7.4 km/h 7.4 km/h 36 % 0.0 mm 904.0 W/m2 CLR
14:50 34.1 °C 15.9 °C 1015.1 hPa WNW 9.3 km/h 9.3 km/h 34 % 0.0 mm 898.0 W/m2 CLR
14:55 33.9 °C 15.9 °C 1015.1 hPa North 7.4 km/h 7.4 km/h 34 % 0.0 mm 895.0 W/m2 CLR
15:00 34.1 °C 16.5 °C 1015.1 hPa Calm     35 % 0.0 mm 889.0 W/m2 CLR
15:05 34.5 °C 16.3 °C 1014.8 hPa ENE 7.4 km/h 7.4 km/h 34 % 0.0 mm 886.0 W/m2 CLR
15:10 34.6 °C 15.9 °C 1014.8 hPa ENE 7.4 km/h 7.4 km/h 33 % 0.0 mm 879.0 W/m2 CLR
15:11 34.6 °C 16.4 °C 1014.8 hPa ENE 1.9 km/h   34 % 0.0 mm 881.0 W/m2 CLR
15:16 34.9 °C 16.7 °C 1014.8 hPa Calm   0.2 km/h 34 % 0.0 mm 882.0 W/m2 CLR
15:21 34.9 °C 15.7 °C 1014.8 hPa NNW 7.4 km/h 7.4 km/h 32 % 0.0 mm 872.0 W/m2 CLR
15:26 34.8 °C 15.7 °C 1014.8 hPa NNW 5.6 km/h 5.6 km/h 32 % 0.0 mm 867.0 W/m2 CLR
15:31 34.7 °C 15.6 °C 1014.4 hPa NNW 5.6 km/h 5.6 km/h 32 % 0.0 mm 858.0 W/m2 CLR
15:36 34.8 °C 15.7 °C 1014.4 hPa North 1.9 km/h   32 % 0.0 mm 849.0 W/m2 CLR
15:41 34.9 °C 15.7 °C 1014.4 hPa Calm     32 % 0.0 mm 846.0 W/m2 CLR
15:46 35.1 °C 15.9 °C 1014.4 hPa North 1.9 km/h 1.9 km/h 32 % 0.0 mm 840.0 W/m2 CLR
15:51 35.3 °C 15.6 °C 1014.4 hPa North 9.3 km/h 9.3 km/h 31 % 0.0 mm 831.0 W/m2 CLR
15:56 35.3 °C 15.1 °C 1014.1 hPa Calm     30 % 0.0 mm 821.0 W/m2 CLR
16:01 35.4 °C 14.7 °C 1014.1 hPa North 9.3 km/h 9.3 km/h 29 % 0.0 mm 817.0 W/m2 CLR
16:06 35.5 °C 14.7 °C 1014.1 hPa NNW 6.4 km/h 6.4 km/h 29 % 0.0 mm 810.0 W/m2 CLR
16:11 35.7 °C 14.3 °C 1014.1 hPa North 7.4 km/h   28 % 0.0 mm 802.0 W/m2 CLR
16:16 35.7 °C 14.9 °C 1014.1 hPa Calm     29 % 0.0 mm 793.0 W/m2 CLR
16:21 35.9 °C 15.1 °C 1013.8 hPa NNW 9.3 km/h 9.3 km/h 29 % 0.0 mm 782.0 W/m2 CLR
16:26 36.0 °C 14.6 °C 1013.8 hPa North 7.4 km/h 7.4 km/h 28 % 0.0 mm 775.0 W/m2 CLR
16:31 36.0 °C 14.6 °C 1013.8 hPa North 7.4 km/h 7.4 km/h 28 % 0.0 mm 765.0 W/m2 CLR
16:36 36.1 °C 14.7 °C 1013.8 hPa NNW 9.7 km/h 9.7 km/h 28 % 0.0 mm 756.0 W/m2 CLR
16:41 36.3 °C 14.3 °C 1013.8 hPa NW 9.3 km/h 9.3 km/h 27 % 0.0 mm 744.0 W/m2 CLR
16:46 36.4 °C 14.4 °C 1013.8 hPa North 16.7 km/h 16.7 km/h 27 % 0.0 mm 731.0 W/m2 CLR
16:51 36.4 °C 14.4 °C 1013.8 hPa NW 11.1 km/h 11.1 km/h 27 % 0.0 mm 721.0 W/m2 CLR
16:56 36.5 °C 14.5 °C 1013.8 hPa WNW 1.9 km/h   27 % 0.0 mm 707.0 W/m2 CLR
17:01 36.7 °C 15.2 °C 1013.8 hPa NNE 9.7 km/h 9.7 km/h 28 % 0.0 mm 696.0 W/m2 CLR
17:06 36.7 °C 15.2 °C 1013.8 hPa North 8.0 km/h 8.0 km/h 28 % 0.0 mm 680.0 W/m2 CLR
17:11 36.6 °C 15.2 °C 1013.8 hPa East 5.6 km/h 5.6 km/h 28 % 0.0 mm 668.0 W/m2 CLR
17:16 36.6 °C 15.2 °C 1013.4 hPa NNE 13.0 km/h 13.0 km/h 28 % 0.0 mm 656.0 W/m2 CLR
17:21 36.5 °C 15.6 °C 1013.4 hPa ENE 8.0 km/h 8.0 km/h 29 % 0.0 mm 645.0 W/m2 CLR
17:26 36.6 °C 15.2 °C 1013.4 hPa East 9.7 km/h 9.7 km/h 28 % 0.0 mm 631.0 W/m2 CLR
17:31 36.3 °C 14.9 °C 1013.4 hPa North 1.9 km/h   28 % 0.0 mm 617.0 W/m2 CLR
17:36 36.4 °C 15.0 °C 1013.4 hPa Calm     28 % 0.0 mm 606.0 W/m2 CLR
17:41 36.7 °C 15.2 °C 1013.1 hPa ENE 3.7 km/h 3.7 km/h 28 % 0.0 mm 591.0 W/m2 CLR
17:46 36.6 °C 14.6 °C 1013.4 hPa East 5.6 km/h 5.6 km/h 27 % 0.0 mm 577.0 W/m2 CLR
17:51 36.3 °C 14.3 °C 1013.1 hPa ENE 7.4 km/h 7.4 km/h 27 % 0.0 mm 555.0 W/m2 CLR
17:54 36.2 °C 14.8 °C 1013.1 hPa East 8.0 km/h 8.0 km/h 28 % 0.0 mm 548.0 W/m2 CLR
17:59 36.1 °C 14.7 °C 1013.1 hPa ENE 13.0 km/h 13.0 km/h 28 % 0.0 mm 536.0 W/m2 CLR
18:04 36.0 °C 14.1 °C 1013.1 hPa East 7.4 km/h 7.4 km/h 27 % 0.0 mm 519.0 W/m2 CLR
18:09 36.1 °C 15.3 °C 1013.1 hPa ENE 5.6 km/h 5.6 km/h 29 % 0.0 mm 501.0 W/m2 CLR
18:14 36.4 °C 14.9 °C 1013.1 hPa ENE 9.3 km/h 9.3 km/h 28 % 0.0 mm 487.0 W/m2 CLR
18:19 36.4 °C 15.0 °C 1013.1 hPa Calm     28 % 0.0 mm 469.0 W/m2 CLR
18:24 36.6 °C 14.6 °C 1013.1 hPa ENE 6.4 km/h 6.4 km/h 27 % 0.0 mm 457.0 W/m2 CLR
18:29 36.6 °C 14.6 °C 1013.1 hPa ENE 5.6 km/h 5.6 km/h 27 % 0.0 mm 446.0 W/m2 CLR
18:34 36.6 °C 15.2 °C 1013.1 hPa Calm     28 % 0.0 mm 429.0 W/m2 CLR
18:39 36.9 °C 15.4 °C 1012.8 hPa Calm     28 % 0.0 mm 410.0 W/m2 CLR
18:44 37.1 °C 14.9 °C 1012.8 hPa Calm     27 % 0.0 mm 396.0 W/m2 CLR
18:49 37.2 °C 15.1 °C 1012.8 hPa Calm     27 % 0.0 mm 376.0 W/m2 CLR
18:54 37.4 °C 15.2 °C 1012.8 hPa NNW 1.9 km/h   27 % 0.0 mm 364.0 W/m2 CLR
18:59 37.4 °C 15.2 °C 1012.8 hPa NE 1.9 km/h   27 % 0.0 mm 348.0 W/m2 CLR
19:04 37.5 °C 14.7 °C 1012.8 hPa NW 7.4 km/h 7.4 km/h 26 % 0.0 mm 327.0 W/m2 CLR
19:09 37.4 °C 14.7 °C 1012.8 hPa WNW 14.8 km/h 14.8 km/h 26 % 0.0 mm 313.0 W/m2 CLR
19:14 37.0 °C 14.3 °C 1012.8 hPa NW 9.3 km/h 9.3 km/h 26 % 0.0 mm 295.0 W/m2 CLR
19:19 36.8 °C 14.2 °C 1012.8 hPa Calm     26 % 0.0 mm 283.0 W/m2 CLR
19:24 36.8 °C 14.2 °C 1012.8 hPa Calm     26 % 0.0 mm 265.0 W/m2 CLR
19:29 36.8 °C 14.2 °C 1012.8 hPa North 13.0 km/h 13.0 km/h 26 % 0.0 mm 251.0 W/m2 CLR
19:34 36.7 °C 14.6 °C 1012.8 hPa North 11.1 km/h 11.1 km/h 27 % 0.0 mm 237.0 W/m2 CLR
19:39 36.7 °C 14.6 °C 1012.8 hPa WNW 5.6 km/h 5.6 km/h 27 % 0.0 mm 221.0 W/m2 CLR
19:44 36.6 °C 14.6 °C 1012.8 hPa WNW 5.6 km/h 5.6 km/h 27 % 0.0 mm 202.0 W/m2 CLR
19:49 36.4 °C 14.4 °C 1012.8 hPa NNW 13.0 km/h 13.0 km/h 27 % 0.0 mm 185.0 W/m2 CLR
19:54 36.3 °C 14.3 °C 1012.8 hPa North 7.4 km/h 7.4 km/h 27 % 0.0 mm 171.0 W/m2 CLR
19:59 36.2 °C 14.2 °C 1012.8 hPa NNW 5.6 km/h   27 % 0.0 mm 158.0 W/m2 CLR
20:04 36.2 °C 14.8 °C 1012.8 hPa NNW 5.6 km/h 5.6 km/h 28 % 0.0 mm 149.0 W/m2 CLR
20:09 36.0 °C 14.6 °C 1013.1 hPa NNW 9.3 km/h 9.3 km/h 28 % 0.0 mm 130.0 W/m2 CLR
20:14 35.9 °C 14.6 °C 1013.1 hPa Calm     28 % 0.0 mm 120.0 W/m2 CLR
20:19 35.8 °C 15.0 °C 1013.1 hPa NW 14.8 km/h 14.8 km/h 29 % 0.0 mm 105.0 W/m2 CLR
20:24 35.6 °C 14.8 °C 1013.1 hPa Calm     29 % 0.0 mm 93.0 W/m2 CLR
20:29 35.4 °C 14.7 °C 1013.1 hPa Calm     29 % 0.0 mm 81.0 W/m2 CLR
20:34 35.3 °C 15.1 °C 1013.1 hPa NNW 7.4 km/h 7.4 km/h 30 % 0.0 mm 69.0 W/m2 FEW
20:39 35.2 °C 15.1 °C 1013.1 hPa Calm     30 % 0.0 mm 60.0 W/m2 SCT
20:44 35.1 °C 14.9 °C 1013.1 hPa Calm     30 % 0.0 mm 53.0 W/m2 SCT
20:49 35.0 °C 15.3 °C 1013.1 hPa Calm     31 % 0.0 mm 44.0 W/m2 BKN
20:54 34.8 °C 15.2 °C 1013.1 hPa Calm     31 % 0.0 mm 37.0 W/m2 BKN
20:59 34.6 °C 15.0 °C 1013.1 hPa Calm     31 % 0.0 mm 32.0 W/m2 BKN
21:04 34.4 °C 15.3 °C 1013.4 hPa Calm     32 % 0.0 mm 26.0 W/m2 BKN
21:09 34.1 °C 15.6 °C 1013.4 hPa Calm     33 % 0.0 mm 21.0 W/m2 BKN
21:14 33.9 °C 16.7 °C 1013.4 hPa Calm     36 % 0.0 mm 16.0 W/m2 BKN
21:19 33.6 °C 16.1 °C 1013.4 hPa NNW 7.4 km/h 7.4 km/h 35 % 0.0 mm 11.0 W/m2 BKN
21:24 33.4 °C 16.3 °C 1013.8 hPa North 5.6 km/h   36 % 0.0 mm 7.0 W/m2 BKN
21:29 33.3 °C 16.6 °C 1013.4 hPa Calm     37 % 0.0 mm 0.0 W/m2 OVC
21:34 33.1 °C 16.4 °C 1013.8 hPa Calm     37 % 0.0 mm 0.0 W/m2 OVC
21:39 32.9 °C 16.7 °C 1013.8 hPa Calm     38 % 0.0 mm 0.0 W/m2 OVC
21:44 32.7 °C 17.7 °C 1013.8 hPa Calm     41 % 0.0 mm 0.0 W/m2 CLR
21:49 32.5 °C 16.8 °C 1014.1 hPa NNW 7.4 km/h 7.4 km/h 39 % 0.0 mm 0.0 W/m2 CLR
21:54 32.3 °C 16.2 °C 1014.1 hPa WNW 11.1 km/h 11.1 km/h 38 % 0.0 mm 0.0 W/m2 CLR
21:59 32.2 °C 16.1 °C 1014.1 hPa NNW 14.8 km/h 14.8 km/h 38 % 0.0 mm 0.0 W/m2 CLR
22:04 32.1 °C 16.0 °C 1014.1 hPa NW 18.5 km/h 18.5 km/h 38 % 0.0 mm 0.0 W/m2 CLR
22:10 32.1 °C 15.9 °C 1014.4 hPa NW 11.3 km/h 11.3 km/h 38 % 0.0 mm 0.0 W/m2 CLR
22:15 31.9 °C 15.8 °C 1014.4 hPa NW 16.7 km/h 16.7 km/h 38 % 0.0 mm 0.0 W/m2 CLR
22:20 31.8 °C 15.7 °C 1014.4 hPa NNW 13.0 km/h 13.0 km/h 38 % 0.0 mm 0.0 W/m2 CLR
22:25 31.6 °C 15.9 °C 1014.8 hPa NW 12.9 km/h 12.9 km/h 39 % 0.0 mm 0.0 W/m2 CLR
22:30 31.4 °C 15.4 °C 1014.8 hPa NW 16.7 km/h 16.7 km/h 38 % 0.0 mm 0.0 W/m2 CLR
22:35 31.3 °C 15.3 °C 1014.8 hPa NNW 13.0 km/h 13.0 km/h 38 % 0.0 mm 0.0 W/m2 CLR
22:40 31.2 °C 15.6 °C 1014.8 hPa NNW 18.5 km/h 18.5 km/h 39 % 0.0 mm 0.0 W/m2 CLR
22:45 31.1 °C 15.1 °C 1015.1 hPa NW 14.8 km/h 14.8 km/h 38 % 0.0 mm 0.0 W/m2 CLR
22:50 30.9 °C 14.9 °C 1015.1 hPa NW 18.5 km/h 18.5 km/h 38 % 0.0 mm 0.0 W/m2 CLR
22:55 30.8 °C 14.9 °C 1015.1 hPa WNW 18.5 km/h 18.5 km/h 38 % 0.0 mm 0.0 W/m2 CLR
23:00 30.7 °C 14.8 °C 1015.1 hPa NNW 17.7 km/h 17.7 km/h 38 % 0.0 mm 0.0 W/m2 CLR
23:05 30.6 °C 14.6 °C 1015.1 hPa NW 18.5 km/h 18.5 km/h 38 % 0.0 mm 0.0 W/m2 CLR
23:10 30.4 °C 14.9 °C 1015.5 hPa WNW 24.1 km/h 24.1 km/h 39 % 0.0 mm 0.0 W/m2 CLR
23:15 30.3 °C 14.8 °C 1015.5 hPa NW 22.2 km/h 22.2 km/h 39 % 0.0 mm 0.0 W/m2 CLR
23:20 30.1 °C 14.6 °C 1015.5 hPa NNW 24.1 km/h 24.1 km/h 39 % 0.0 mm 0.0 W/m2 CLR
23:25 30.0 °C 14.6 °C 1015.5 hPa NW 27.8 km/h 27.8 km/h 39 % 0.0 mm 0.0 W/m2 CLR
23:30 29.9 °C 14.4 °C 1015.5 hPa WNW 25.9 km/h 25.9 km/h 39 % 0.0 mm 0.0 W/m2 CLR
23:35 29.8 °C 14.3 °C 1015.5 hPa WNW 29.6 km/h 29.6 km/h 39 % 0.0 mm 0.0 W/m2 CLR
23:40 29.7 °C 14.3 °C 1015.8 hPa NW 18.5 km/h 18.5 km/h 39 % 0.0 mm 0.0 W/m2 CLR
23:45 29.6 °C 14.1 °C 1015.8 hPa NW 22.2 km/h 22.2 km/h 39 % 0.0 mm 0.0 W/m2 CLR
23:50 29.4 °C 14.0 °C 1015.8 hPa WNW 20.4 km/h 20.4 km/h 39 % 0.0 mm 0.0 W/m2 CLR
23:55 29.3 °C 14.3 °C 1015.8 hPa WNW 16.1 km/h 16.1 km/h 40 % 0.0 mm 0.0 W/m2 CLR
Lo Temps de Massalio
Compliments of Weather Underground - 1.25 mb